sensor_id;sensor_type;location;lat;lon;timestamp;P1;durP1;ratioP1;P2;durP2;ratioP2
18997;SDS011;9632;51.018;4.284;2023-04-03T00:01:07;8.00;;;3.60;;
18997;SDS011;9632;51.018;4.284;2023-04-03T00:03:33;7.47;;;3.53;;
18997;SDS011;9632;51.018;4.284;2023-04-03T00:05:59;7.22;;;3.38;;
18997;SDS011;9632;51.018;4.284;2023-04-03T00:08:25;9.50;;;3.92;;
18997;SDS011;9632;51.018;4.284;2023-04-03T00:10:51;11.32;;;4.15;;
18997;SDS011;9632;51.018;4.284;2023-04-03T00:13:16;5.65;;;3.55;;
18997;SDS011;9632;51.018;4.284;2023-04-03T00:15:42;8.63;;;3.97;;
18997;SDS011;9632;51.018;4.284;2023-04-03T00:18:08;12.38;;;3.70;;
18997;SDS011;9632;51.018;4.284;2023-04-03T00:20:34;7.85;;;3.70;;
18997;SDS011;9632;51.018;4.284;2023-04-03T00:23:00;10.48;;;3.90;;
18997;SDS011;9632;51.018;4.284;2023-04-03T00:25:26;7.15;;;3.50;;
18997;SDS011;9632;51.018;4.284;2023-04-03T00:27:52;8.10;;;3.40;;
18997;SDS011;9632;51.018;4.284;2023-04-03T00:30:19;11.55;;;3.65;;
18997;SDS011;9632;51.018;4.284;2023-04-03T00:32:47;6.40;;;3.13;;
18997;SDS011;9632;51.018;4.284;2023-04-03T00:35:13;8.88;;;3.50;;
18997;SDS011;9632;51.018;4.284;2023-04-03T00:37:41;6.55;;;3.00;;
18997;SDS011;9632;51.018;4.284;2023-04-03T00:40:07;8.00;;;3.70;;
18997;SDS011;9632;51.018;4.284;2023-04-03T00:42:35;9.88;;;3.67;;
18997;SDS011;9632;51.018;4.284;2023-04-03T00:47:27;9.10;;;3.70;;
18997;SDS011;9632;51.018;4.284;2023-04-03T00:49:54;7.28;;;3.15;;
18997;SDS011;9632;51.018;4.284;2023-04-03T00:52:21;12.73;;;3.65;;
18997;SDS011;9632;51.018;4.284;2023-04-03T00:54:50;8.27;;;3.47;;
18997;SDS011;9632;51.018;4.284;2023-04-03T00:57:19;9.07;;;3.38;;
18997;SDS011;9632;51.018;4.284;2023-04-03T00:59:49;8.77;;;3.65;;
18997;SDS011;9632;51.018;4.284;2023-04-03T01:02:19;9.00;;;3.42;;
18997;SDS011;9632;51.018;4.284;2023-04-03T01:04:45;6.78;;;3.10;;
18997;SDS011;9632;51.018;4.284;2023-04-03T01:07:13;7.57;;;3.42;;
18997;SDS011;9632;51.018;4.284;2023-04-03T01:09:43;6.68;;;3.25;;
18997;SDS011;9632;51.018;4.284;2023-04-03T01:12:16;8.80;;;3.75;;
18997;SDS011;9632;51.018;4.284;2023-04-03T01:14:43;10.07;;;3.80;;
18997;SDS011;9632;51.018;4.284;2023-04-03T01:22:42;9.00;;;3.60;;
18997;SDS011;9632;51.018;4.284;2023-04-03T01:25:22;7.33;;;3.70;;
18997;SDS011;9632;51.018;4.284;2023-04-03T01:27:48;6.93;;;3.40;;
18997;SDS011;9632;51.018;4.284;2023-04-03T01:30:14;9.83;;;3.80;;
18997;SDS011;9632;51.018;4.284;2023-04-03T01:32:43;8.48;;;3.47;;
18997;SDS011;9632;51.018;4.284;2023-04-03T01:35:09;9.15;;;4.00;;
18997;SDS011;9632;51.018;4.284;2023-04-03T01:37:35;6.30;;;3.30;;
18997;SDS011;9632;51.018;4.284;2023-04-03T01:40:01;8.98;;;3.85;;
18997;SDS011;9632;51.018;4.284;2023-04-03T01:42:27;7.10;;;3.95;;
18997;SDS011;9632;51.018;4.284;2023-04-03T01:44:52;9.93;;;4.43;;
18997;SDS011;9632;51.018;4.284;2023-04-03T01:47:18;7.57;;;4.38;;
18997;SDS011;9632;51.018;4.284;2023-04-03T01:49:44;9.95;;;3.80;;
18997;SDS011;9632;51.018;4.284;2023-04-03T01:52:10;7.45;;;3.88;;
18997;SDS011;9632;51.018;4.284;2023-04-03T01:54:36;9.65;;;4.50;;
18997;SDS011;9632;51.018;4.284;2023-04-03T01:57:01;9.20;;;3.90;;
18997;SDS011;9632;51.018;4.284;2023-04-03T01:59:27;10.50;;;3.88;;
18997;SDS011;9632;51.018;4.284;2023-04-03T02:01:53;8.53;;;3.77;;
18997;SDS011;9632;51.018;4.284;2023-04-03T02:04:18;7.30;;;3.53;;
18997;SDS011;9632;51.018;4.284;2023-04-03T02:06:44;7.83;;;4.03;;
18997;SDS011;9632;51.018;4.284;2023-04-03T02:09:10;8.90;;;4.20;;
18997;SDS011;9632;51.018;4.284;2023-04-03T02:11:35;9.70;;;4.20;;
18997;SDS011;9632;51.018;4.284;2023-04-03T02:14:01;14.30;;;4.30;;
18997;SDS011;9632;51.018;4.284;2023-04-03T02:16:27;7.10;;;3.90;;
18997;SDS011;9632;51.018;4.284;2023-04-03T02:18:53;8.20;;;4.50;;
18997;SDS011;9632;51.018;4.284;2023-04-03T02:21:19;8.73;;;4.47;;
18997;SDS011;9632;51.018;4.284;2023-04-03T02:23:45;8.20;;;4.07;;
18997;SDS011;9632;51.018;4.284;2023-04-03T02:26:12;8.13;;;4.50;;
18997;SDS011;9632;51.018;4.284;2023-04-03T02:28:39;10.82;;;4.88;;
18997;SDS011;9632;51.018;4.284;2023-04-03T02:31:06;9.23;;;5.00;;
18997;SDS011;9632;51.018;4.284;2023-04-03T02:33:32;9.20;;;4.43;;
18997;SDS011;9632;51.018;4.284;2023-04-03T02:35:58;9.33;;;4.67;;
18997;SDS011;9632;51.018;4.284;2023-04-03T02:38:24;7.63;;;4.20;;
18997;SDS011;9632;51.018;4.284;2023-04-03T02:40:50;9.52;;;4.35;;
18997;SDS011;9632;51.018;4.284;2023-04-03T02:43:17;9.85;;;4.88;;
18997;SDS011;9632;51.018;4.284;2023-04-03T02:45:43;10.70;;;4.55;;
18997;SDS011;9632;51.018;4.284;2023-04-03T02:48:08;10.70;;;4.38;;
18997;SDS011;9632;51.018;4.284;2023-04-03T02:50:34;9.80;;;4.68;;
18997;SDS011;9632;51.018;4.284;2023-04-03T02:53:00;11.30;;;4.60;;
18997;SDS011;9632;51.018;4.284;2023-04-03T02:55:26;9.25;;;4.60;;
18997;SDS011;9632;51.018;4.284;2023-04-03T02:57:51;8.02;;;4.30;;
18997;SDS011;9632;51.018;4.284;2023-04-03T03:00:17;9.15;;;4.50;;
18997;SDS011;9632;51.018;4.284;2023-04-03T03:02:43;10.50;;;4.55;;
18997;SDS011;9632;51.018;4.284;2023-04-03T03:05:08;8.70;;;4.53;;
18997;SDS011;9632;51.018;4.284;2023-04-03T03:07:34;9.73;;;4.68;;
18997;SDS011;9632;51.018;4.284;2023-04-03T03:10:00;10.17;;;4.80;;
18997;SDS011;9632;51.018;4.284;2023-04-03T03:12:25;8.23;;;4.47;;
18997;SDS011;9632;51.018;4.284;2023-04-03T03:14:51;7.32;;;4.53;;
18997;SDS011;9632;51.018;4.284;2023-04-03T03:17:17;8.27;;;4.40;;
18997;SDS011;9632;51.018;4.284;2023-04-03T03:19:43;9.03;;;4.83;;
18997;SDS011;9632;51.018;4.284;2023-04-03T03:22:09;10.37;;;4.83;;
18997;SDS011;9632;51.018;4.284;2023-04-03T03:24:34;9.07;;;4.53;;
18997;SDS011;9632;51.018;4.284;2023-04-03T03:27:00;8.25;;;4.50;;
18997;SDS011;9632;51.018;4.284;2023-04-03T03:29:26;9.17;;;5.10;;
18997;SDS011;9632;51.018;4.284;2023-04-03T03:31:51;8.87;;;5.10;;
18997;SDS011;9632;51.018;4.284;2023-04-03T03:34:17;7.63;;;4.73;;
18997;SDS011;9632;51.018;4.284;2023-04-03T03:36:43;12.05;;;5.43;;
18997;SDS011;9632;51.018;4.284;2023-04-03T03:39:09;8.33;;;5.03;;
18997;SDS011;9632;51.018;4.284;2023-04-03T03:41:35;12.83;;;6.20;;
18997;SDS011;9632;51.018;4.284;2023-04-03T03:44:00;9.77;;;5.40;;
18997;SDS011;9632;51.018;4.284;2023-04-03T03:46:26;9.97;;;5.13;;
18997;SDS011;9632;51.018;4.284;2023-04-03T03:48:52;11.13;;;5.60;;
18997;SDS011;9632;51.018;4.284;2023-04-03T03:51:17;10.83;;;5.27;;
18997;SDS011;9632;51.018;4.284;2023-04-03T03:53:43;9.57;;;5.20;;
18997;SDS011;9632;51.018;4.284;2023-04-03T03:56:09;12.93;;;5.03;;
18997;SDS011;9632;51.018;4.284;2023-04-03T03:58:35;10.67;;;5.33;;
18997;SDS011;9632;51.018;4.284;2023-04-03T04:01:01;9.37;;;4.90;;
18997;SDS011;9632;51.018;4.284;2023-04-03T04:03:30;8.60;;;5.20;;
18997;SDS011;9632;51.018;4.284;2023-04-03T04:05:56;7.65;;;4.78;;
18997;SDS011;9632;51.018;4.284;2023-04-03T04:08:22;9.77;;;4.57;;
18997;SDS011;9632;51.018;4.284;2023-04-03T04:10:48;11.83;;;5.13;;
18997;SDS011;9632;51.018;4.284;2023-04-03T04:13:15;9.13;;;5.00;;
18997;SDS011;9632;51.018;4.284;2023-04-03T04:15:42;9.70;;;4.80;;
18997;SDS011;9632;51.018;4.284;2023-04-03T04:18:08;6.70;;;4.10;;
18997;SDS011;9632;51.018;4.284;2023-04-03T04:20:34;10.37;;;5.13;;
18997;SDS011;9632;51.018;4.284;2023-04-03T04:22:59;9.37;;;4.67;;
18997;SDS011;9632;51.018;4.284;2023-04-03T04:25:25;8.27;;;4.50;;
18997;SDS011;9632;51.018;4.284;2023-04-03T04:27:51;8.03;;;4.70;;
18997;SDS011;9632;51.018;4.284;2023-04-03T04:30:17;8.30;;;4.67;;
18997;SDS011;9632;51.018;4.284;2023-04-03T04:32:42;10.15;;;5.03;;
18997;SDS011;9632;51.018;4.284;2023-04-03T04:35:08;8.80;;;4.40;;
18997;SDS011;9632;51.018;4.284;2023-04-03T04:37:34;7.83;;;4.70;;
18997;SDS011;9632;51.018;4.284;2023-04-03T04:40:00;6.97;;;4.37;;
18997;SDS011;9632;51.018;4.284;2023-04-03T04:42:25;7.97;;;4.35;;
18997;SDS011;9632;51.018;4.284;2023-04-03T04:44:51;8.50;;;4.67;;
18997;SDS011;9632;51.018;4.284;2023-04-03T04:47:17;8.20;;;4.80;;
18997;SDS011;9632;51.018;4.284;2023-04-03T04:49:42;9.17;;;4.67;;
18997;SDS011;9632;51.018;4.284;2023-04-03T04:52:08;7.50;;;4.67;;
18997;SDS011;9632;51.018;4.284;2023-04-03T04:54:34;9.10;;;4.63;;
18997;SDS011;9632;51.018;4.284;2023-04-03T04:57:00;9.00;;;5.03;;
18997;SDS011;9632;51.018;4.284;2023-04-03T04:59:25;9.70;;;5.00;;
18997;SDS011;9632;51.018;4.284;2023-04-03T05:01:51;10.53;;;4.67;;
18997;SDS011;9632;51.018;4.284;2023-04-03T05:04:17;10.63;;;5.33;;
18997;SDS011;9632;51.018;4.284;2023-04-03T05:06:42;9.43;;;5.33;;
18997;SDS011;9632;51.018;4.284;2023-04-03T05:09:08;9.70;;;5.40;;
18997;SDS011;9632;51.018;4.284;2023-04-03T05:11:35;9.67;;;5.70;;
18997;SDS011;9632;51.018;4.284;2023-04-03T05:14:01;10.40;;;6.10;;
18997;SDS011;9632;51.018;4.284;2023-04-03T05:16:26;12.63;;;6.80;;
18997;SDS011;9632;51.018;4.284;2023-04-03T05:18:52;10.67;;;6.27;;
18997;SDS011;9632;51.018;4.284;2023-04-03T05:21:17;10.23;;;5.90;;
18997;SDS011;9632;51.018;4.284;2023-04-03T05:23:43;9.37;;;5.40;;
18997;SDS011;9632;51.018;4.284;2023-04-03T05:26:09;9.30;;;5.20;;
18997;SDS011;9632;51.018;4.284;2023-04-03T05:28:35;12.07;;;5.20;;
18997;SDS011;9632;51.018;4.284;2023-04-03T05:31:01;11.30;;;5.57;;
18997;SDS011;9632;51.018;4.284;2023-04-03T05:33:27;7.77;;;4.73;;
18997;SDS011;9632;51.018;4.284;2023-04-03T05:35:53;9.10;;;4.97;;
18997;SDS011;9632;51.018;4.284;2023-04-03T05:38:20;9.23;;;5.03;;
18997;SDS011;9632;51.018;4.284;2023-04-03T05:40:45;9.40;;;4.63;;
18997;SDS011;9632;51.018;4.284;2023-04-03T05:43:12;8.93;;;4.87;;
18997;SDS011;9632;51.018;4.284;2023-04-03T05:45:37;9.57;;;5.17;;
18997;SDS011;9632;51.018;4.284;2023-04-03T05:48:03;9.03;;;5.10;;
18997;SDS011;9632;51.018;4.284;2023-04-03T05:50:29;10.97;;;5.13;;
18997;SDS011;9632;51.018;4.284;2023-04-03T05:52:55;11.47;;;5.20;;
18997;SDS011;9632;51.018;4.284;2023-04-03T05:55:23;10.87;;;5.23;;
18997;SDS011;9632;51.018;4.284;2023-04-03T05:57:48;10.87;;;5.23;;
18997;SDS011;9632;51.018;4.284;2023-04-03T06:00:15;11.03;;;5.53;;
18997;SDS011;9632;51.018;4.284;2023-04-03T06:02:41;9.87;;;5.80;;
18997;SDS011;9632;51.018;4.284;2023-04-03T06:05:08;7.90;;;5.20;;
18997;SDS011;9632;51.018;4.284;2023-04-03T06:07:36;14.20;;;5.90;;
18997;SDS011;9632;51.018;4.284;2023-04-03T06:10:02;12.30;;;5.93;;
18997;SDS011;9632;51.018;4.284;2023-04-03T06:12:28;10.93;;;5.40;;
18997;SDS011;9632;51.018;4.284;2023-04-03T06:14:55;12.20;;;5.90;;
18997;SDS011;9632;51.018;4.284;2023-04-03T06:17:20;10.90;;;5.97;;
18997;SDS011;9632;51.018;4.284;2023-04-03T06:19:46;13.87;;;7.03;;
18997;SDS011;9632;51.018;4.284;2023-04-03T06:22:12;12.98;;;6.88;;
18997;SDS011;9632;51.018;4.284;2023-04-03T06:24:38;11.65;;;6.75;;
18997;SDS011;9632;51.018;4.284;2023-04-03T06:27:04;12.73;;;7.00;;
18997;SDS011;9632;51.018;4.284;2023-04-03T06:29:30;12.70;;;6.43;;
18997;SDS011;9632;51.018;4.284;2023-04-03T06:31:56;18.08;;;6.93;;
18997;SDS011;9632;51.018;4.284;2023-04-03T06:34:21;14.55;;;7.18;;
18997;SDS011;9632;51.018;4.284;2023-04-03T06:36:47;15.30;;;6.43;;
18997;SDS011;9632;51.018;4.284;2023-04-03T06:39:17;16.45;;;6.97;;
18997;SDS011;9632;51.018;4.284;2023-04-03T06:41:46;13.17;;;6.90;;
18997;SDS011;9632;51.018;4.284;2023-04-03T06:44:11;13.73;;;6.88;;
18997;SDS011;9632;51.018;4.284;2023-04-03T06:46:40;15.65;;;6.78;;
18997;SDS011;9632;51.018;4.284;2023-04-03T06:49:06;12.75;;;6.53;;
18997;SDS011;9632;51.018;4.284;2023-04-03T06:51:35;14.88;;;6.28;;
18997;SDS011;9632;51.018;4.284;2023-04-03T06:54:01;14.40;;;6.45;;
18997;SDS011;9632;51.018;4.284;2023-04-03T06:56:28;14.25;;;6.30;;
18997;SDS011;9632;51.018;4.284;2023-04-03T06:58:54;13.80;;;6.85;;
18997;SDS011;9632;51.018;4.284;2023-04-03T07:01:23;13.10;;;5.68;;
18997;SDS011;9632;51.018;4.284;2023-04-03T07:03:51;18.00;;;7.55;;
18997;SDS011;9632;51.018;4.284;2023-04-03T07:06:17;12.73;;;5.72;;
18997;SDS011;9632;51.018;4.284;2023-04-03T07:08:43;13.00;;;5.18;;
18997;SDS011;9632;51.018;4.284;2023-04-03T07:11:11;16.25;;;5.43;;
18997;SDS011;9632;51.018;4.284;2023-04-03T07:13:38;12.38;;;4.97;;
18997;SDS011;9632;51.018;4.284;2023-04-03T07:16:04;11.50;;;5.30;;
18997;SDS011;9632;51.018;4.284;2023-04-03T07:18:31;15.25;;;4.97;;
18997;SDS011;9632;51.018;4.284;2023-04-03T07:20:57;9.07;;;4.43;;
18997;SDS011;9632;51.018;4.284;2023-04-03T07:23:23;12.20;;;4.97;;
18997;SDS011;9632;51.018;4.284;2023-04-03T07:25:50;13.80;;;5.00;;
18997;SDS011;9632;51.018;4.284;2023-04-03T07:28:17;11.30;;;4.82;;
18997;SDS011;9632;51.018;4.284;2023-04-03T07:30:45;9.75;;;4.10;;
18997;SDS011;9632;51.018;4.284;2023-04-03T07:33:12;10.55;;;4.35;;
18997;SDS011;9632;51.018;4.284;2023-04-03T07:35:39;10.77;;;4.28;;
18997;SDS011;9632;51.018;4.284;2023-04-03T07:38:06;9.68;;;4.20;;
18997;SDS011;9632;51.018;4.284;2023-04-03T07:40:32;13.82;;;4.15;;
18997;SDS011;9632;51.018;4.284;2023-04-03T07:42:58;11.75;;;4.10;;
18997;SDS011;9632;51.018;4.284;2023-04-03T07:45:24;9.45;;;4.30;;
18997;SDS011;9632;51.018;4.284;2023-04-03T07:47:51;11.80;;;4.15;;
18997;SDS011;9632;51.018;4.284;2023-04-03T07:50:17;11.68;;;4.28;;
18997;SDS011;9632;51.018;4.284;2023-04-03T07:52:43;11.98;;;4.40;;
18997;SDS011;9632;51.018;4.284;2023-04-03T07:55:09;8.70;;;4.10;;
18997;SDS011;9632;51.018;4.284;2023-04-03T07:57:35;11.30;;;4.43;;
18997;SDS011;9632;51.018;4.284;2023-04-03T08:00:02;8.48;;;3.88;;
18997;SDS011;9632;51.018;4.284;2023-04-03T08:02:29;9.60;;;4.25;;
18997;SDS011;9632;51.018;4.284;2023-04-03T08:04:56;8.43;;;4.05;;
18997;SDS011;9632;51.018;4.284;2023-04-03T08:07:22;10.25;;;3.85;;
18997;SDS011;9632;51.018;4.284;2023-04-03T08:09:48;12.02;;;3.95;;
18997;SDS011;9632;51.018;4.284;2023-04-03T08:12:14;7.25;;;3.22;;
18997;SDS011;9632;51.018;4.284;2023-04-03T08:14:40;8.05;;;3.75;;
18997;SDS011;9632;51.018;4.284;2023-04-03T08:17:06;9.13;;;4.25;;
18997;SDS011;9632;51.018;4.284;2023-04-03T08:19:34;10.68;;;3.35;;
18997;SDS011;9632;51.018;4.284;2023-04-03T08:22:00;8.18;;;2.95;;
18997;SDS011;9632;51.018;4.284;2023-04-03T08:24:28;10.88;;;3.47;;
18997;SDS011;9632;51.018;4.284;2023-04-03T08:26:54;10.05;;;3.15;;
18997;SDS011;9632;51.018;4.284;2023-04-03T08:29:20;8.82;;;3.22;;
18997;SDS011;9632;51.018;4.284;2023-04-03T08:31:46;11.57;;;3.20;;
18997;SDS011;9632;51.018;4.284;2023-04-03T08:34:13;8.30;;;2.97;;
18997;SDS011;9632;51.018;4.284;2023-04-03T08:36:39;7.47;;;3.25;;
18997;SDS011;9632;51.018;4.284;2023-04-03T08:39:05;9.13;;;3.10;;
18997;SDS011;9632;51.018;4.284;2023-04-03T08:44:13;7.28;;;3.15;;
18997;SDS011;9632;51.018;4.284;2023-04-03T08:49:53;8.00;;;2.53;;
18997;SDS011;9632;51.018;4.284;2023-04-03T08:55:01;8.48;;;2.80;;
18997;SDS011;9632;51.018;4.284;2023-04-03T08:57:34;7.38;;;2.70;;
18997;SDS011;9632;51.018;4.284;2023-04-03T09:05:13;8.48;;;2.70;;
18997;SDS011;9632;51.018;4.284;2023-04-03T09:07:45;10.80;;;3.00;;
18997;SDS011;9632;51.018;4.284;2023-04-03T09:10:27;7.45;;;2.25;;
18997;SDS011;9632;51.018;4.284;2023-04-03T09:13:00;8.48;;;2.45;;
18997;SDS011;9632;51.018;4.284;2023-04-03T09:15:32;5.90;;;2.13;;
18997;SDS011;9632;51.018;4.284;2023-04-03T09:18:00;6.97;;;2.17;;
18997;SDS011;9632;51.018;4.284;2023-04-03T09:20:38;6.55;;;2.40;;
18997;SDS011;9632;51.018;4.284;2023-04-03T09:23:52;6.05;;;2.05;;
18997;SDS011;9632;51.018;4.284;2023-04-03T09:29:05;8.90;;;2.45;;
18997;SDS011;9632;51.018;4.284;2023-04-03T09:31:39;8.48;;;2.10;;
18997;SDS011;9632;51.018;4.284;2023-04-03T09:34:40;12.02;;;2.10;;
18997;SDS011;9632;51.018;4.284;2023-04-03T09:37:02;11.32;;;1.88;;
18997;SDS011;9632;51.018;4.284;2023-04-03T09:39:31;6.53;;;1.65;;
18997;SDS011;9632;51.018;4.284;2023-04-03T09:42:20;4.93;;;1.60;;
18997;SDS011;9632;51.018;4.284;2023-04-03T09:50:10;4.18;;;1.50;;
18997;SDS011;9632;51.018;4.284;2023-04-03T09:52:46;5.35;;;1.35;;
18997;SDS011;9632;51.018;4.284;2023-04-03T09:55:14;5.65;;;1.52;;
18997;SDS011;9632;51.018;4.284;2023-04-03T09:57:52;5.28;;;1.75;;
18997;SDS011;9632;51.018;4.284;2023-04-03T10:00:23;9.57;;;2.08;;
18997;SDS011;9632;51.018;4.284;2023-04-03T10:02:55;5.80;;;1.50;;
18997;SDS011;9632;51.018;4.284;2023-04-03T10:05:54;7.25;;;1.75;;
18997;SDS011;9632;51.018;4.284;2023-04-03T10:10:38;4.65;;;1.50;;
18997;SDS011;9632;51.018;4.284;2023-04-03T10:13:16;6.18;;;1.67;;
18997;SDS011;9632;51.018;4.284;2023-04-03T10:18:37;7.00;;;1.60;;
18997;SDS011;9632;51.018;4.284;2023-04-03T10:21:13;6.43;;;1.55;;
18997;SDS011;9632;51.018;4.284;2023-04-03T10:26:59;6.07;;;1.52;;
18997;SDS011;9632;51.018;4.284;2023-04-03T10:29:40;5.90;;;1.40;;
18997;SDS011;9632;51.018;4.284;2023-04-03T10:57:28;4.85;;;1.45;;
18997;SDS011;9632;51.018;4.284;2023-04-03T10:59:56;6.65;;;1.40;;
18997;SDS011;9632;51.018;4.284;2023-04-03T11:02:31;4.85;;;1.45;;
18997;SDS011;9632;51.018;4.284;2023-04-03T11:05:06;5.72;;;1.52;;
18997;SDS011;9632;51.018;4.284;2023-04-03T11:07:53;4.75;;;1.40;;
18997;SDS011;9632;51.018;4.284;2023-04-03T11:10:23;5.82;;;1.40;;
18997;SDS011;9632;51.018;4.284;2023-04-03T11:13:02;4.60;;;1.30;;
18997;SDS011;9632;51.018;4.284;2023-04-03T11:15:32;3.03;;;1.30;;
18997;SDS011;9632;51.018;4.284;2023-04-03T11:18:02;2.88;;;1.20;;
18997;SDS011;9632;51.018;4.284;2023-04-03T11:20:33;4.70;;;1.40;;
18997;SDS011;9632;51.018;4.284;2023-04-03T11:23:21;5.85;;;1.10;;
18997;SDS011;9632;51.018;4.284;2023-04-03T11:25:53;4.15;;;1.10;;
18997;SDS011;9632;51.018;4.284;2023-04-03T11:28:24;30.05;;;2.13;;
18997;SDS011;9632;51.018;4.284;2023-04-03T11:36:33;5.65;;;1.17;;
18997;SDS011;9632;51.018;4.284;2023-04-03T11:41:49;4.07;;;0.88;;
18997;SDS011;9632;51.018;4.284;2023-04-03T11:47:04;3.65;;;1.00;;
18997;SDS011;9632;51.018;4.284;2023-04-03T11:49:52;4.13;;;1.08;;
18997;SDS011;9632;51.018;4.284;2023-04-03T12:14:01;3.92;;;0.98;;
18997;SDS011;9632;51.018;4.284;2023-04-03T12:19:27;2.20;;;0.90;;
18997;SDS011;9632;51.018;4.284;2023-04-03T12:24:29;5.13;;;0.88;;
18997;SDS011;9632;51.018;4.284;2023-04-03T12:29:24;3.30;;;0.80;;
18997;SDS011;9632;51.018;4.284;2023-04-03T12:40:27;2.65;;;0.80;;
18997;SDS011;9632;51.018;4.284;2023-04-03T12:43:26;5.75;;;0.70;;
18997;SDS011;9632;51.018;4.284;2023-04-03T12:48:33;2.72;;;0.82;;
18997;SDS011;9632;51.018;4.284;2023-04-03T12:51:16;6.68;;;0.80;;
18997;SDS011;9632;51.018;4.284;2023-04-03T12:53:45;3.53;;;0.93;;
18997;SDS011;9632;51.018;4.284;2023-04-03T12:58:45;2.13;;;0.70;;
18997;SDS011;9632;51.018;4.284;2023-04-03T13:01:16;0.80;;;0.50;;
18997;SDS011;9632;51.018;4.284;2023-04-03T13:03:54;2.85;;;0.75;;
18997;SDS011;9632;51.018;4.284;2023-04-03T13:06:23;5.72;;;0.90;;
18997;SDS011;9632;51.018;4.284;2023-04-03T13:08:56;4.10;;;0.85;;
18997;SDS011;9632;51.018;4.284;2023-04-03T13:11:25;2.58;;;0.70;;
18997;SDS011;9632;51.018;4.284;2023-04-03T13:14:02;2.80;;;0.90;;
18997;SDS011;9632;51.018;4.284;2023-04-03T13:16:32;4.95;;;0.80;;
18997;SDS011;9632;51.018;4.284;2023-04-03T13:18:58;4.22;;;0.95;;
18997;SDS011;9632;51.018;4.284;2023-04-03T13:21:25;2.20;;;0.80;;
18997;SDS011;9632;51.018;4.284;2023-04-03T13:23:57;3.28;;;0.85;;
18997;SDS011;9632;51.018;4.284;2023-04-03T13:26:29;4.22;;;0.93;;
18997;SDS011;9632;51.018;4.284;2023-04-03T13:28:59;3.33;;;0.98;;
18997;SDS011;9632;51.018;4.284;2023-04-03T13:31:43;4.38;;;0.73;;
18997;SDS011;9632;51.018;4.284;2023-04-03T13:39:30;2.38;;;0.85;;
18997;SDS011;9632;51.018;4.284;2023-04-03T13:42:00;2.70;;;0.70;;
18997;SDS011;9632;51.018;4.284;2023-04-03T13:44:38;1.45;;;0.80;;
18997;SDS011;9632;51.018;4.284;2023-04-03T13:49:42;3.22;;;0.73;;
18997;SDS011;9632;51.018;4.284;2023-04-03T13:52:30;3.80;;;0.70;;
18997;SDS011;9632;51.018;4.284;2023-04-03T13:55:01;5.03;;;0.95;;
18997;SDS011;9632;51.018;4.284;2023-04-03T13:57:48;3.88;;;1.00;;
18997;SDS011;9632;51.018;4.284;2023-04-03T14:00:47;9.13;;;1.45;;
18997;SDS011;9632;51.018;4.284;2023-04-03T14:05:47;7.30;;;1.30;;
18997;SDS011;9632;51.018;4.284;2023-04-03T14:08:13;3.20;;;0.98;;
18997;SDS011;9632;51.018;4.284;2023-04-03T14:10:39;2.33;;;0.80;;
18997;SDS011;9632;51.018;4.284;2023-04-03T14:13:05;3.67;;;1.25;;
18997;SDS011;9632;51.018;4.284;2023-04-03T14:15:32;2.03;;;0.90;;
18997;SDS011;9632;51.018;4.284;2023-04-03T14:17:57;4.90;;;1.15;;
18997;SDS011;9632;51.018;4.284;2023-04-03T14:20:25;5.70;;;1.10;;
18997;SDS011;9632;51.018;4.284;2023-04-03T14:22:51;5.43;;;1.00;;
18997;SDS011;9632;51.018;4.284;2023-04-03T14:25:19;5.72;;;1.30;;
18997;SDS011;9632;51.018;4.284;2023-04-03T14:27:46;6.38;;;1.38;;
18997;SDS011;9632;51.018;4.284;2023-04-03T14:32:51;4.80;;;1.20;;
18997;SDS011;9632;51.018;4.284;2023-04-03T14:35:18;4.25;;;1.08;;
18997;SDS011;9632;51.018;4.284;2023-04-03T14:37:45;2.80;;;0.90;;
18997;SDS011;9632;51.018;4.284;2023-04-03T14:40:16;4.68;;;1.23;;
18997;SDS011;9632;51.018;4.284;2023-04-03T14:42:44;2.70;;;0.90;;
18997;SDS011;9632;51.018;4.284;2023-04-03T14:45:12;6.43;;;1.02;;
18997;SDS011;9632;51.018;4.284;2023-04-03T14:47:44;5.28;;;1.25;;
18997;SDS011;9632;51.018;4.284;2023-04-03T14:50:16;3.78;;;0.80;;
18997;SDS011;9632;51.018;4.284;2023-04-03T14:52:48;6.00;;;0.90;;
18997;SDS011;9632;51.018;4.284;2023-04-03T14:55:17;5.03;;;1.02;;
18997;SDS011;9632;51.018;4.284;2023-04-03T14:57:44;2.05;;;0.82;;
18997;SDS011;9632;51.018;4.284;2023-04-03T15:00:15;4.55;;;0.80;;
18997;SDS011;9632;51.018;4.284;2023-04-03T15:02:43;3.35;;;0.80;;
18997;SDS011;9632;51.018;4.284;2023-04-03T15:05:09;3.22;;;0.80;;
18997;SDS011;9632;51.018;4.284;2023-04-03T15:07:37;2.97;;;0.85;;
18997;SDS011;9632;51.018;4.284;2023-04-03T15:10:19;2.90;;;0.93;;
18997;SDS011;9632;51.018;4.284;2023-04-03T15:12:46;3.78;;;0.82;;
18997;SDS011;9632;51.018;4.284;2023-04-03T15:15:14;3.00;;;0.80;;
18997;SDS011;9632;51.018;4.284;2023-04-03T15:17:41;6.93;;;0.95;;
18997;SDS011;9632;51.018;4.284;2023-04-03T15:20:17;4.28;;;0.90;;
18997;SDS011;9632;51.018;4.284;2023-04-03T15:22:45;4.70;;;0.90;;
18997;SDS011;9632;51.018;4.284;2023-04-03T15:25:11;3.13;;;0.82;;
18997;SDS011;9632;51.018;4.284;2023-04-03T15:27:37;6.43;;;0.98;;
18997;SDS011;9632;51.018;4.284;2023-04-03T15:30:04;1.33;;;0.68;;
18997;SDS011;9632;51.018;4.284;2023-04-03T15:32:30;5.53;;;0.77;;
18997;SDS011;9632;51.018;4.284;2023-04-03T15:34:56;2.92;;;0.82;;
18997;SDS011;9632;51.018;4.284;2023-04-03T15:37:22;5.35;;;0.90;;
18997;SDS011;9632;51.018;4.284;2023-04-03T15:39:48;4.15;;;0.73;;
18997;SDS011;9632;51.018;4.284;2023-04-03T15:42:14;4.65;;;0.95;;
18997;SDS011;9632;51.018;4.284;2023-04-03T15:44:39;3.35;;;0.65;;
18997;SDS011;9632;51.018;4.284;2023-04-03T15:47:05;2.70;;;0.80;;
18997;SDS011;9632;51.018;4.284;2023-04-03T15:49:35;2.35;;;0.75;;
18997;SDS011;9632;51.018;4.284;2023-04-03T15:52:01;3.60;;;1.00;;
18997;SDS011;9632;51.018;4.284;2023-04-03T15:54:28;4.00;;;0.73;;
18997;SDS011;9632;51.018;4.284;2023-04-03T15:56:54;4.60;;;0.85;;
18997;SDS011;9632;51.018;4.284;2023-04-03T15:59:20;3.25;;;0.80;;
18997;SDS011;9632;51.018;4.284;2023-04-03T16:01:47;3.42;;;0.80;;
18997;SDS011;9632;51.018;4.284;2023-04-03T16:04:13;2.72;;;0.88;;
18997;SDS011;9632;51.018;4.284;2023-04-03T16:06:39;3.95;;;0.75;;
18997;SDS011;9632;51.018;4.284;2023-04-03T16:09:06;5.63;;;0.85;;
18997;SDS011;9632;51.018;4.284;2023-04-03T16:11:31;3.90;;;0.88;;
18997;SDS011;9632;51.018;4.284;2023-04-03T16:13:57;3.15;;;0.82;;
18997;SDS011;9632;51.018;4.284;2023-04-03T16:16:23;3.70;;;0.80;;
18997;SDS011;9632;51.018;4.284;2023-04-03T16:18:50;6.88;;;0.85;;
18997;SDS011;9632;51.018;4.284;2023-04-03T16:21:18;5.32;;;1.00;;
18997;SDS011;9632;51.018;4.284;2023-04-03T16:23:44;4.68;;;1.05;;
18997;SDS011;9632;51.018;4.284;2023-04-03T16:26:09;5.63;;;0.98;;
18997;SDS011;9632;51.018;4.284;2023-04-03T16:28:35;4.03;;;1.08;;
18997;SDS011;9632;51.018;4.284;2023-04-03T16:31:01;4.90;;;0.90;;
18997;SDS011;9632;51.018;4.284;2023-04-03T16:33:27;2.95;;;1.00;;
18997;SDS011;9632;51.018;4.284;2023-04-03T16:35:54;3.42;;;0.88;;
18997;SDS011;9632;51.018;4.284;2023-04-03T16:38:20;3.92;;;1.10;;
18997;SDS011;9632;51.018;4.284;2023-04-03T16:40:47;2.50;;;0.63;;
18997;SDS011;9632;51.018;4.284;2023-04-03T16:43:14;2.30;;;1.02;;
18997;SDS011;9632;51.018;4.284;2023-04-03T16:45:40;2.47;;;0.80;;
18997;SDS011;9632;51.018;4.284;2023-04-03T16:48:06;4.30;;;1.00;;
18997;SDS011;9632;51.018;4.284;2023-04-03T16:50:32;1.85;;;0.80;;
18997;SDS011;9632;51.018;4.284;2023-04-03T16:52:57;4.50;;;1.00;;
18997;SDS011;9632;51.018;4.284;2023-04-03T16:55:23;3.28;;;1.10;;
18997;SDS011;9632;51.018;4.284;2023-04-03T16:57:49;4.60;;;1.10;;
18997;SDS011;9632;51.018;4.284;2023-04-03T17:00:14;7.30;;;1.45;;
18997;SDS011;9632;51.018;4.284;2023-04-03T17:02:40;3.17;;;1.13;;
18997;SDS011;9632;51.018;4.284;2023-04-03T17:05:06;3.60;;;1.20;;
18997;SDS011;9632;51.018;4.284;2023-04-03T17:07:32;14.38;;;2.25;;
18997;SDS011;9632;51.018;4.284;2023-04-03T17:09:58;2.05;;;1.00;;
18997;SDS011;9632;51.018;4.284;2023-04-03T17:12:25;5.22;;;1.42;;
18997;SDS011;9632;51.018;4.284;2023-04-03T17:14:50;5.80;;;1.13;;